createdAt,value
2022-12-20T00:03:41.074Z,96968.81
2022-12-20T00:07:53.366Z,96959.38
2022-12-20T00:12:06.819Z,96960.09
2022-12-20T00:16:30.253Z,96961.00
2022-12-20T00:20:42.593Z,96969.84
2022-12-20T00:24:57.067Z,96958.50
2022-12-20T00:29:09.648Z,96953.69
2022-12-20T00:33:22.220Z,96940.84
2022-12-20T00:37:34.853Z,96942.44
2022-12-20T00:41:47.170Z,96930.63
2022-12-20T00:46:03.037Z,96935.41
2022-12-20T00:50:15.469Z,96938.84
2022-12-20T00:54:27.770Z,96934.25
2022-12-20T00:58:41.874Z,96945.25
2022-12-20T01:02:54.289Z,96933.94
2022-12-20T01:07:16.709Z,96935.22
2022-12-20T01:11:31.912Z,96941.84
2022-12-20T01:15:44.219Z,96935.03
2022-12-20T01:19:56.567Z,96934.63
2022-12-20T01:24:09.753Z,96952.63
2022-12-20T01:28:22.101Z,96934.13
2022-12-20T01:32:34.413Z,96917.78
2022-12-20T01:36:46.752Z,96919.66
2022-12-20T01:40:59.211Z,96923.38
2022-12-20T01:45:26.321Z,96913.13
2022-12-20T01:49:45.570Z,96917.28
2022-12-20T01:54:02.630Z,96927.47
2022-12-20T01:58:17.932Z,96932.19
2022-12-20T02:02:30.445Z,96928.00
2022-12-20T02:06:42.940Z,96913.41
2022-12-20T02:11:15.470Z,96918.13
2022-12-20T02:15:36.858Z,96934.25
2022-12-20T02:20:08.243Z,96910.88
2022-12-20T02:24:54.361Z,96912.94
2022-12-20T02:29:26.032Z,96921.78
2022-12-20T02:33:40.152Z,96919.09
2022-12-20T02:37:55.568Z,96907.84
2022-12-20T02:42:14.680Z,96921.88
2022-12-20T02:46:28.316Z,96902.81
2022-12-20T02:50:47.492Z,96905.19
2022-12-20T02:55:01.084Z,96906.72
2022-12-20T02:59:18.887Z,96908.63
2022-12-20T03:03:40.409Z,96904.00
2022-12-20T03:07:53.292Z,96902.13
2022-12-20T03:12:06.414Z,96894.84
2022-12-20T03:16:19.420Z,96878.91
2022-12-20T03:20:32.037Z,96876.63
2022-12-20T03:24:44.346Z,96884.75
2022-12-20T03:28:56.738Z,96893.66
2022-12-20T03:33:13.479Z,96884.81
2022-12-20T03:37:27.682Z,96880.16
2022-12-20T03:41:40.101Z,96870.13
2022-12-20T03:45:53.216Z,96845.34
2022-12-20T03:50:07.078Z,96850.88
2022-12-20T03:54:19.599Z,96856.75
2022-12-20T03:58:33.003Z,96847.00
2022-12-20T04:02:45.567Z,96847.41
2022-12-20T04:06:58.081Z,96852.13
2022-12-20T04:11:19.943Z,96857.94
2022-12-20T04:15:32.307Z,96854.41
2022-12-20T04:19:44.630Z,96871.97
2022-12-20T04:23:58.302Z,96875.88
2022-12-20T04:28:10.606Z,96876.75
2022-12-20T04:32:22.900Z,96858.88
2022-12-20T04:36:35.399Z,96861.91
2022-12-20T04:40:50.814Z,96859.94
2022-12-20T04:45:03.512Z,96847.09
2022-12-20T04:49:15.989Z,96848.28
2022-12-20T04:53:46.941Z,96845.19
2022-12-20T04:58:05.275Z,96837.09
2022-12-20T05:02:19.868Z,96840.44
2022-12-20T05:06:32.283Z,96831.84
2022-12-20T05:10:44.732Z,96829.53
2022-12-20T05:14:57.371Z,96804.38
2022-12-20T05:19:09.665Z,96807.22
2022-12-20T05:23:40.385Z,96793.25
2022-12-20T05:27:52.677Z,96790.56
2022-12-20T05:32:05.241Z,96801.09
2022-12-20T05:36:17.654Z,96784.72
2022-12-20T05:40:31.924Z,96787.09
2022-12-20T05:44:54.214Z,96776.25
2022-12-20T05:49:06.537Z,96787.88
2022-12-20T05:53:28.959Z,96790.97
2022-12-20T05:57:41.322Z,96776.28
2022-12-20T06:01:53.764Z,96776.63
2022-12-20T06:06:13.558Z,96774.66
2022-12-20T06:10:27.448Z,96786.22
2022-12-20T06:14:39.835Z,96774.53
2022-12-20T06:18:52.620Z,96770.34
2022-12-20T06:23:05.057Z,96769.25
2022-12-20T06:27:27.460Z,96777.78
2022-12-20T06:31:39.797Z,96768.84
2022-12-20T06:35:54.095Z,96791.06
2022-12-20T06:40:07.400Z,96789.66
2022-12-20T06:44:19.714Z,96790.88
2022-12-20T06:48:32.047Z,96787.38
2022-12-20T06:52:44.358Z,96777.38
2022-12-20T06:56:56.680Z,96778.19
2022-12-20T07:01:15.632Z,96783.19
2022-12-20T07:05:28.499Z,96780.13
2022-12-20T07:09:42.273Z,96775.13
2022-12-20T07:13:58.345Z,96775.47
2022-12-20T07:18:10.783Z,96774.38
2022-12-20T07:22:23.126Z,96765.44
2022-12-20T07:26:35.644Z,96763.91
2022-12-20T07:30:48.274Z,96769.00
2022-12-20T07:35:00.807Z,96763.94
2022-12-20T07:39:14.022Z,96773.66
2022-12-20T07:43:26.351Z,96771.78
2022-12-20T07:47:38.689Z,96769.44
2022-12-20T07:51:54.176Z,96796.25
2022-12-20T07:56:09.975Z,96789.38
2022-12-20T08:00:22.397Z,96790.13
2022-12-20T08:04:35.183Z,96802.59
2022-12-20T08:08:52.461Z,96808.47
2022-12-20T08:13:07.006Z,96805.78
2022-12-20T08:17:19.669Z,96797.63
2022-12-20T08:21:32.559Z,96799.56
2022-12-20T08:25:45.427Z,96773.16
2022-12-20T08:30:08.281Z,96774.69
2022-12-20T08:34:21.138Z,96764.13
2022-12-20T08:38:34.337Z,96776.19
2022-12-20T08:42:46.736Z,96771.53
2022-12-20T08:46:59.055Z,96760.56
2022-12-20T08:51:13.255Z,96773.66
2022-12-20T08:55:29.469Z,96763.56
2022-12-20T08:59:42.704Z,96781.78
2022-12-20T09:03:55.113Z,96769.47
2022-12-20T09:08:07.503Z,96772.81
2022-12-20T09:12:21.917Z,96765.31
2022-12-20T09:16:34.324Z,96758.84
2022-12-20T09:20:46.627Z,96738.50
2022-12-20T09:24:59.318Z,96739.16
2022-12-20T09:29:11.606Z,96742.56
2022-12-20T09:33:23.962Z,96743.28
2022-12-20T09:37:36.440Z,96731.59
2022-12-20T09:41:59.994Z,96722.06
2022-12-20T09:46:16.145Z,96722.47
2022-12-20T09:51:08.404Z,96714.00
2022-12-20T09:55:31.796Z,96701.84
2022-12-20T09:59:49.461Z,96705.22
2022-12-20T10:04:06.808Z,96705.72
2022-12-20T10:08:36.370Z,96704.72
2022-12-20T10:13:13.119Z,96695.50
2022-12-20T10:17:57.219Z,96687.34
2022-12-20T10:22:18.493Z,96698.53
2022-12-20T10:26:33.281Z,96684.53
2022-12-20T10:30:51.536Z,96681.41
2022-12-20T10:35:12.800Z,96678.56
2022-12-20T10:39:42.239Z,96667.28
2022-12-20T10:44:16.407Z,96653.09
2022-12-20T10:48:34.751Z,96657.84
2022-12-20T10:53:10.919Z,96647.75
2022-12-20T10:57:27.708Z,96646.47
2022-12-20T11:01:45.729Z,96633.72
2022-12-20T11:06:01.048Z,96623.00
2022-12-20T11:10:24.120Z,96610.06
2022-12-20T11:14:39.828Z,96624.41
2022-12-20T11:18:57.125Z,96605.97
2022-12-20T11:23:26.044Z,96602.78
2022-12-20T11:27:51.229Z,96607.19
2022-12-20T11:32:25.689Z,96601.78
2022-12-20T11:37:02.703Z,96587.28
2022-12-20T11:41:20.981Z,96581.00
2022-12-20T11:45:39.524Z,96568.38
2022-12-20T11:50:19.775Z,96557.56
2022-12-20T11:54:36.322Z,96548.31
2022-12-20T11:58:55.233Z,96542.88
2022-12-20T12:03:22.598Z,96541.06
2022-12-20T12:07:37.565Z,96535.13
2022-12-20T12:12:07.880Z,96527.59
2022-12-20T12:16:29.028Z,96529.91
2022-12-20T12:20:53.724Z,96520.31
2022-12-20T12:25:14.889Z,96518.22
2022-12-20T12:29:30.439Z,96511.19
2022-12-20T12:34:03.840Z,96508.38
2022-12-20T12:38:38.140Z,96505.34
2022-12-20T12:43:12.118Z,96503.34
2022-12-20T12:47:35.796Z,96519.91
2022-12-20T12:51:56.454Z,96519.84
2022-12-20T12:56:43.108Z,96509.41
2022-12-20T13:01:00.562Z,96499.94
2022-12-20T13:05:19.393Z,96488.72
2022-12-20T13:09:34.784Z,96495.41
2022-12-20T13:13:48.509Z,96496.69
2022-12-20T13:18:12.778Z,96502.09
2022-12-20T13:22:27.030Z,96498.22
2022-12-20T13:26:53.846Z,96514.00
2022-12-20T13:31:06.111Z,96506.25
2022-12-20T13:35:26.749Z,96513.34
2022-12-20T13:39:39.077Z,96518.69
2022-12-20T13:43:52.926Z,96522.13
2022-12-20T13:48:11.638Z,96514.72
2022-12-20T13:52:38.970Z,96507.69
2022-12-20T13:56:53.215Z,96496.13
2022-12-20T14:01:13.765Z,96506.63
2022-12-20T14:05:32.181Z,96515.81
2022-12-20T14:09:55.582Z,96504.31
2022-12-20T14:14:14.845Z,96496.13
2022-12-20T14:18:27.405Z,96482.31
2022-12-20T14:22:57.888Z,96471.38
2022-12-20T14:27:15.144Z,96461.81
2022-12-20T14:31:34.676Z,96455.09
2022-12-20T14:35:49.585Z,96451.81
2022-12-20T14:40:10.794Z,96445.03
2022-12-20T14:44:33.957Z,96429.16
2022-12-20T14:48:46.919Z,96412.50
2022-12-20T14:53:00.283Z,96434.25
2022-12-20T14:57:25.394Z,96449.84
2022-12-20T15:01:43.591Z,96462.94
2022-12-20T15:05:58.903Z,96463.75
2022-12-20T15:10:11.218Z,96454.44
2022-12-20T15:14:41.518Z,96461.56
2022-12-20T15:18:56.608Z,96453.00
2022-12-20T15:23:29.810Z,96448.31
2022-12-20T15:27:42.078Z,96427.47
2022-12-20T15:32:05.030Z,96434.81
2022-12-20T15:36:21.210Z,96417.00
2022-12-20T15:40:38.210Z,96411.66
2022-12-20T15:44:50.802Z,96426.25
2022-12-20T15:49:03.258Z,96427.94
2022-12-20T15:53:17.486Z,96429.88
2022-12-20T15:57:39.768Z,96421.72
2022-12-20T16:02:02.617Z,96417.94
2022-12-20T16:06:15.506Z,96426.88
2022-12-20T16:10:27.816Z,96434.28
2022-12-20T16:14:40.134Z,96441.25
2022-12-20T16:18:54.440Z,96430.34
2022-12-20T16:23:08.401Z,96438.09
2022-12-20T16:27:21.230Z,96427.63
2022-12-20T16:31:39.194Z,96431.13
2022-12-20T16:36:00.349Z,96426.47
2022-12-20T16:40:16.278Z,96426.16
2022-12-20T16:44:28.572Z,96420.81
2022-12-20T16:48:42.420Z,96434.38
2022-12-20T16:52:55.242Z,96423.09
2022-12-20T16:57:07.546Z,96422.03
2022-12-20T17:01:36.425Z,96430.13
2022-12-20T17:05:48.947Z,96423.06
2022-12-20T17:10:01.229Z,96420.06
2022-12-20T17:14:14.350Z,96413.03
2022-12-20T17:18:26.780Z,96398.66
2022-12-20T17:22:39.115Z,96418.13
2022-12-20T17:26:51.696Z,96423.16
2022-12-20T17:31:08.085Z,96419.31
2022-12-20T17:35:24.698Z,96425.13
2022-12-20T17:39:36.964Z,96409.63
2022-12-20T17:43:49.320Z,96411.50
2022-12-20T17:48:01.624Z,96411.56
2022-12-20T17:52:15.442Z,96408.75
2022-12-20T17:56:34.091Z,96419.28
2022-12-20T18:00:46.472Z,96406.06
2022-12-20T18:04:58.847Z,96405.25
2022-12-20T18:09:19.841Z,96416.84
2022-12-20T18:13:33.264Z,96403.22
2022-12-20T18:17:45.937Z,96399.38
2022-12-20T18:22:05.809Z,96388.88
2022-12-20T18:26:24.099Z,96402.16
2022-12-20T18:30:37.174Z,96406.41
2022-12-20T18:34:49.667Z,96410.72
2022-12-20T18:39:03.652Z,96433.25
2022-12-20T18:43:17.082Z,96409.91
2022-12-20T18:47:33.021Z,96406.41
2022-12-20T18:51:45.295Z,96382.75
2022-12-20T18:55:57.731Z,96383.53
2022-12-20T19:00:10.583Z,96372.59
2022-12-20T19:04:25.201Z,96378.81
2022-12-20T19:08:38.639Z,96379.56
2022-12-20T19:12:51.475Z,96378.81
2022-12-20T19:17:03.940Z,96371.88
2022-12-20T19:21:19.692Z,96385.03
2022-12-20T19:25:36.673Z,96369.50
2022-12-20T19:29:48.971Z,96355.50
2022-12-20T19:34:08.269Z,96352.00
2022-12-20T19:38:20.521Z,96352.78
2022-12-20T19:42:32.820Z,96327.56
2022-12-20T19:46:45.219Z,96331.44
2022-12-20T19:51:14.511Z,96331.03
2022-12-20T19:55:28.850Z,96321.25
2022-12-20T19:59:55.569Z,96318.63
2022-12-20T20:04:10.750Z,96320.94
2022-12-20T20:08:25.925Z,96327.88
2022-12-20T20:12:39.130Z,96313.19
2022-12-20T20:16:51.552Z,96296.44
2022-12-20T20:21:13.229Z,96295.53
2022-12-20T20:25:25.503Z,96293.66
2022-12-20T20:29:37.827Z,96300.22
2022-12-20T20:33:50.889Z,96303.69
2022-12-20T20:38:03.207Z,96289.72
2022-12-20T20:42:23.032Z,96296.25
2022-12-20T20:46:35.635Z,96295.91
2022-12-20T20:50:48.037Z,96298.19
2022-12-20T20:55:00.355Z,96292.03
2022-12-20T20:59:17.595Z,96284.63
2022-12-20T21:03:41.276Z,96277.94
2022-12-20T21:07:54.388Z,96283.81
2022-12-20T21:12:06.904Z,96287.84
2022-12-20T21:16:23.162Z,96277.78
2022-12-20T21:20:36.746Z,96285.44
2022-12-20T21:24:49.013Z,96260.63
2022-12-20T21:29:01.924Z,96274.53
2022-12-20T21:33:14.224Z,96267.09
2022-12-20T21:37:27.309Z,96267.88
2022-12-20T21:41:40.534Z,96284.28
2022-12-20T21:45:52.833Z,96271.50
2022-12-20T21:50:06.284Z,96275.72
2022-12-20T21:54:18.576Z,96282.28
2022-12-20T21:58:31.831Z,96296.66
2022-12-20T22:02:44.404Z,96283.50
2022-12-20T22:06:56.782Z,96281.09
2022-12-20T22:11:11.548Z,96295.53
2022-12-20T22:15:23.987Z,96313.53
2022-12-20T22:19:37.855Z,96319.72
2022-12-20T22:23:50.835Z,96332.13
2022-12-20T22:28:03.413Z,96336.78
2022-12-20T22:32:15.832Z,96320.03
2022-12-20T22:36:29.265Z,96312.19
2022-12-20T22:40:41.573Z,96304.00
2022-12-20T22:44:54.863Z,96323.06
2022-12-20T22:49:07.168Z,96328.97
2022-12-20T22:53:19.494Z,96313.44
2022-12-20T22:57:35.466Z,96330.50
2022-12-20T23:01:47.942Z,96322.63
2022-12-20T23:06:02.800Z,96276.78
2022-12-20T23:10:36.771Z,96292.69
2022-12-20T23:15:07.622Z,96292.03
2022-12-20T23:19:20.031Z,96294.69
2022-12-20T23:23:33.008Z,96263.41
2022-12-20T23:27:48.355Z,96262.00
2022-12-20T23:32:00.735Z,96274.84
2022-12-20T23:36:13.317Z,96275.25
2022-12-20T23:40:25.588Z,96251.56
2022-12-20T23:44:39.431Z,96270.50
2022-12-20T23:48:57.622Z,96277.94
2022-12-20T23:53:10.507Z,96285.78
2022-12-20T23:57:22.828Z,96283.91
